Virtual LH

Virtual LH. There's no better way to fly
Since 2013.



AIRPORT MAP

METAR AND TAF INFORMATION

METAR FOR LFBO
ADDS - METARS form results

(2307 UTC 08 July 2020)
Data provider http://aviationweather.gov/metar/data/
 
METAR text: LFBO 082300Z AUTO 30002KT CAVOK 23/10 Q1017 NOSIG
Conditions at: LFBO (TOULOUSE/BLAGNAC, FR) observed 2300 UTC 08 July 2020
Temperature: 23.0°C (73°F)
Dewpoint: 10.0°C (50°F) [RH = 44%]
Pressure (altimeter): 30.03 inches Hg (1017.0 mb)
Winds: from the WNW (300 degrees) at 2 MPH (2 knots; 1.0 m/s)
Visibility: 6 or more miles (10+ km)
Ceiling: ceiling and visibility are OK
Clouds: unknown
Weather: no significant weather observed at this time

METAR text: LFBO 082230Z AUTO 29003KT CAVOK 22/09 Q1017 NOSIG
Conditions at: LFBO (TOULOUSE/BLAGNAC, FR) observed 2230 UTC 08 July 2020
Temperature: 22.0°C (72°F)
Dewpoint: 9.0°C (48°F) [RH = 43%]
Pressure (altimeter): 30.03 inches Hg (1017.0 mb)
Winds: from the WNW (290 degrees) at 3 MPH (3 knots; 1.5 m/s)
Visibility: 6 or more miles (10+ km)
Ceiling: ceiling and visibility are OK
Clouds: unknown
Weather: no significant weather observed at this time

Forecast for: LFBO (TOULOUSE/BLAGNAC, FR)
Text: TAF LFBO 081700Z 0818/0924 VRB03KT CAVOK
Forecast period: 1800 UTC 08 July 2020 to 1800 UTC 09 July 2020
Forecast type: FROM: standard forecast or significant change
Winds: variable direction winds at 3 MPH (3 knots; 1.5 m/s)
Visibility: 6 or more miles 10+ km)
Ceiling: unknown
Clouds: missing
Weather: NSW  (no significant weather)
Text: BECMG 0918/0920 27008KT
Forecast period: 1800 UTC 09 July 2020 to 0000 UTC 10 July 2020
Forecast type: BECOMING: Conditions expected to become as follows by 2000 UTC 09 July 2020
Winds: from the W (270 degrees) at 9 MPH (8 knots; 4.1 m/s)
Visibility: 6 or more miles 10+ km)
Ceiling: unknown
Clouds: missing
Weather: NSW  (no significant weather)

RUNWAY INFORMATION

Runway 14R Runway length 11483 ft Runway width 148 ft
Runway elevation 488 ft Runway displaced threshold 0 ft Runway heading 143
Runway 32L Runway length 11483 ft Runway width 148 ft
Runway elevation 497 ft Runway displaced threshold 0 ft Runway heading 323
Runway 14L Runway length 9843 ft Runway width 148 ft
Runway elevation 490 ft Runway displaced threshold 0 ft Runway heading 143
Runway 32R Runway length 9843 ft Runway width 148 ft
Runway elevation 497 ft Runway displaced threshold 0 ft Runway heading 323

AIRPORT FREQUENCIES

Type AFIS Name TOULOUSE I Frequency 121.25 MHZ
Type APP Name TOULOUSE A Frequency 125.175 MHZ
Type APP Name APP Frequency 121.1 MHZ
Type ATIS Name ATIS Frequency 123.125 MHZ
Type CLD Name CLNC DEL Frequency 121.7 MHZ
Type GND Name GND Frequency 121.9 MHZ
Type TWR Name TWR Frequency 118.1 MHZ

AIRPORT NEAR NAVIGATION AIDS

Type NDB Name Toulouse Frequency 415 KHZ
Type VOR-DME Name Toulouse Frequency 117700 KHZ
Type NDB Name Toulouse Frequency 423 KHZ
Type NDB Name Toulouse Frequency 406 KHZ